This is the latest recevied weather packets stored in our database for station/object K4IR. If no packets are shown the sender has not sent any weather packets the latest 10 day(s).
| Time | Temp. | Humidity | Pressure | Rain* | Wind** | Luminosity | Snow |
|---|---|---|---|---|---|---|---|
| 1778084658 | 26.67° C | 64% | 1016.7 hPa | 0 mm | - | 810 W/m² | - |
| 1778084054 | 26.67° C | 61% | 1017 hPa | 0 mm | - | 790 W/m² | - |
| 1778083454 | 25.56° C | 64% | 1016.8 hPa | 0 mm | - | 792 W/m² | - |
| 1778082849 | 26.11° C | 65% | 1016.9 hPa | 0 mm | - | 500 W/m² | - |
| 1778081731 | 25° C | 70% | 1016.8 hPa | 0 mm | - | 562 W/m² | - |
| 1778081131 | 25° C | 70% | 1016.8 hPa | 0 mm | - | 756 W/m² | - |
| 1778080526 | 25.56° C | 70% | 1016.8 hPa | 0 mm | - | 348 W/m² | - |
| 1778079925 | 25° C | 71% | 1016.7 hPa | 0 mm | - | 307 W/m² | - |
| 1778079325 | 25° C | 71% | 1016.6 hPa | 0 mm | - | 491 W/m² | - |
| 1778078725 | 25° C | 72% | 1016.9 hPa | 0 mm | - | 222 W/m² | - |
| 1778078120 | 24.44° C | 72% | 1016.9 hPa | 0 mm | - | 131 W/m² | - |
| 1778077516 | 23.89° C | 74% | 1016.4 hPa | 0 mm | - | 115 W/m² | - |
| 1778076911 | 23.89° C | 73% | 1016.7 hPa | 0 mm | - | 115 W/m² | - |
| 1778076306 | 23.33° C | 76% | 1016.9 hPa | 0 mm | - | 160 W/m² | - |
| 1778075706 | 23.89° C | 76% | 1016.9 hPa | 0 mm | - | 182 W/m² | - |
| 1778075103 | 23.89° C | 75% | 1016.8 hPa | 0 mm | - | 89 W/m² | - |
| 1778074503 | 23.89° C | 75% | 1016.8 hPa | 0 mm | - | 139 W/m² | - |
| 1778073903 | 23.33° C | 77% | 1016.5 hPa | 0 mm | - | 139 W/m² | - |
| 1778073297 | 22.78° C | 78% | 1016.4 hPa | 0 mm | - | 63 W/m² | - |
| 1778072696 | 23.33° C | 79% | 1016.5 hPa | 0 mm | - | 168 W/m² | - |
| 1778072092 | 22.22° C | 81% | 1016.5 hPa | 0 mm | - | 294 W/m² | - |
| 1778071487 | 21.67° C | 89% | 1016.5 hPa | 0 mm | - | 228 W/m² | - |
| 1778070883 | 20.56° C | 96% | 1016.5 hPa | 0 mm | - | 197 W/m² | - |
| 1778070283 | 20° C | 98% | 1016.4 hPa | 0 mm | - | 152 W/m² | - |
| 1778069677 | 18.33° C | 99% | 1016.3 hPa | 0 mm | - | 121 W/m² | - |
* Rain latest hour (hover to see other rain measurements)
** Current wind speed in m/s (hover to see current wind gust speed)